Langdon, North Dakota
Current Conditions -  °F | °C
As of 9:35 AM on Saturday 25 Oct 2014 (Local Time) from KD55 Reporting Station
Clear Clear  
Wind Chill: 30°   Ceiling: Unl
Heat Index: 37°   Visibility: 10mi
Dew Point: 28°   Wind: 12mph
Humidity: 70%   Direction: 280°W
Pressure: 30.05"   Gusts: NA
Location:  48.76°N, 98.37°W
Report Text: KD55 251435Z AUTO 28010KT 10SM CLR 03/M02 A3005 RMK AO2
Loading
Personal Weather Stations






























Interactive Weather Map
Tropical Storm Tracking
New forecast layout! Learn more

10-Day Weather Forecast

Advertisements
Track Severe Weather on mobile